createdAt,value
2023-01-30T00:00:32.506Z,82.80
2023-01-30T00:04:55.282Z,83.22
2023-01-30T00:08:58.456Z,82.58
2023-01-30T00:13:01.206Z,82.14
2023-01-30T00:17:12.425Z,82.45
2023-01-30T00:21:15.769Z,82.22
2023-01-30T00:25:18.679Z,82.57
2023-01-30T00:29:21.490Z,82.88
2023-01-30T00:33:56.548Z,82.95
2023-01-30T00:37:59.751Z,83.23
2023-01-30T00:42:36.895Z,82.45
2023-01-30T00:51:24.634Z,82.11
2023-01-30T00:55:28.770Z,82.20
2023-01-30T00:59:31.521Z,82.63
2023-01-30T01:03:39.540Z,82.71
2023-01-30T01:07:42.319Z,82.56
2023-01-30T01:11:45.082Z,82.10
2023-01-30T01:15:53.818Z,81.45
2023-01-30T01:19:56.561Z,81.37
2023-01-30T01:24:00.793Z,81.91
2023-01-30T01:28:03.954Z,82.93
2023-01-30T01:32:12.267Z,83.53
2023-01-30T01:36:29.314Z,83.12
2023-01-30T01:45:52.043Z,83.25
2023-01-30T01:49:55.258Z,83.45
2023-01-30T01:54:36.312Z,83.74
2023-01-30T01:58:45.996Z,84.10
2023-01-30T02:03:17.838Z,83.78
2023-01-30T02:07:22.263Z,83.44
2023-01-30T02:11:56.036Z,82.73
2023-01-30T02:16:01.772Z,82.54
2023-01-30T02:20:28.565Z,81.70
2023-01-30T02:25:08.903Z,81.12
2023-01-30T02:29:40.136Z,80.75
2023-01-30T02:34:29.652Z,80.56
2023-01-30T02:38:46.001Z,81.05
2023-01-30T02:42:55.971Z,81.60
2023-01-30T02:47:32.347Z,81.85
2023-01-30T02:51:39.698Z,81.90
2023-01-30T02:55:43.857Z,81.68
2023-01-30T03:12:08.819Z,82.52
2023-01-30T03:16:21.720Z,80.92
2023-01-30T03:20:24.877Z,80.52
2023-01-30T03:24:28.049Z,79.71
2023-01-30T03:28:55.922Z,79.66
2023-01-30T03:32:58.949Z,80.06
2023-01-30T03:37:02.651Z,80.15
2023-01-30T03:41:06.239Z,80.10
2023-01-30T03:45:11.218Z,80.07
2023-01-30T03:49:14.266Z,79.94
2023-01-30T03:53:25.873Z,79.83
2023-01-30T03:57:28.759Z,80.21
2023-01-30T04:02:00.910Z,80.25
2023-01-30T04:06:03.938Z,80.61
2023-01-30T04:10:07.403Z,80.87
2023-01-30T04:14:10.385Z,80.59
2023-01-30T04:18:13.366Z,80.79
2023-01-30T04:22:23.637Z,80.84
2023-01-30T04:26:26.774Z,81.08
2023-01-30T04:30:32.163Z,81.27
2023-01-30T04:34:35.151Z,81.56
2023-01-30T04:38:38.895Z,81.69
2023-01-30T04:42:41.853Z,81.44
2023-01-30T04:46:44.873Z,81.72
2023-01-30T04:50:50.226Z,81.70
2023-01-30T04:54:53.189Z,83.04
2023-01-30T04:58:56.231Z,85.20
2023-01-30T05:02:59.488Z,85.90
2023-01-30T05:07:02.463Z,86.15
2023-01-30T05:11:05.676Z,86.43
2023-01-30T05:15:09.520Z,86.42
2023-01-30T05:19:39.673Z,86.17
2023-01-30T05:23:42.925Z,85.75
2023-01-30T05:27:46.235Z,85.80
2023-01-30T05:31:49.289Z,85.57
2023-01-30T05:35:59.651Z,85.97
2023-01-30T05:40:02.597Z,85.94
2023-01-30T05:44:14.088Z,86.17
2023-01-30T05:48:17.131Z,85.78
2023-01-30T05:53:17.922Z,85.37
2023-01-30T05:57:20.916Z,84.72
2023-01-30T06:01:28.884Z,84.00
2023-01-30T06:05:31.866Z,83.40
2023-01-30T06:09:53.594Z,82.91
2023-01-30T06:14:28.366Z,82.33
2023-01-30T06:18:31.402Z,81.90
2023-01-30T06:22:34.380Z,81.46
2023-01-30T06:27:04.186Z,81.62
2023-01-30T06:31:08.355Z,81.16
2023-01-30T06:35:11.435Z,80.76
2023-01-30T06:39:14.412Z,80.88
2023-01-30T06:43:17.584Z,80.99
2023-01-30T06:47:21.643Z,81.28
2023-01-30T06:51:25.188Z,81.79
2023-01-30T06:55:28.697Z,82.31
2023-01-30T06:59:31.827Z,83.01
2023-01-30T07:03:34.980Z,83.85
2023-01-30T07:08:02.846Z,85.01
2023-01-30T07:12:06.047Z,87.04
2023-01-30T07:16:09.157Z,87.76
2023-01-30T07:20:12.362Z,87.68
2023-01-30T07:24:15.521Z,87.36
2023-01-30T07:28:18.664Z,87.18
2023-01-30T07:32:21.751Z,87.43
2023-01-30T07:36:24.692Z,87.27
2023-01-30T07:40:28.049Z,87.01
2023-01-30T07:44:56.745Z,86.98
2023-01-30T07:48:59.955Z,87.00
2023-01-30T07:53:07.201Z,87.58
2023-01-30T07:57:10.206Z,88.03
2023-01-30T08:01:14.336Z,88.32
2023-01-30T08:05:17.418Z,87.80
2023-01-30T08:09:20.520Z,87.59
2023-01-30T08:13:54.677Z,87.91
2023-01-30T08:18:25.737Z,88.09
2023-01-30T08:22:29.273Z,88.59
2023-01-30T08:26:32.411Z,88.91
2023-01-30T08:31:09.126Z,88.98
2023-01-30T08:35:12.259Z,89.14
2023-01-30T08:39:16.017Z,88.96
2023-01-30T08:43:19.316Z,89.39
2023-01-30T08:47:22.297Z,90.10
2023-01-30T08:51:34.184Z,90.94
2023-01-30T08:56:02.600Z,91.47
2023-01-30T09:00:06.540Z,91.80
2023-01-30T09:04:09.638Z,91.42
2023-01-30T09:08:36.715Z,91.72
2023-01-30T09:12:39.760Z,91.92
2023-01-30T09:16:42.747Z,91.47
2023-01-30T09:20:45.781Z,91.51
2023-01-30T09:24:48.931Z,91.63
2023-01-30T09:28:54.156Z,92.10
2023-01-30T09:32:57.112Z,93.07
2023-01-30T09:37:04.372Z,94.29
2023-01-30T09:41:26.481Z,96.76
2023-01-30T09:45:49.566Z,99.01
2023-01-30T09:49:58.491Z,100.00
2023-01-30T09:54:36.557Z,100.00
2023-01-30T09:59:31.599Z,100.00
2023-01-30T10:03:40.219Z,100.00
2023-01-30T10:08:01.670Z,100.00
2023-01-30T10:12:16.995Z,100.00
2023-01-30T10:16:26.174Z,100.00
2023-01-30T10:20:48.434Z,100.00
2023-01-30T10:25:39.712Z,100.00
2023-01-30T10:29:48.756Z,100.00
2023-01-30T10:33:51.777Z,100.00
2023-01-30T10:38:14.117Z,100.00
2023-01-30T10:42:23.894Z,99.60
2023-01-30T10:46:43.660Z,99.48
2023-01-30T10:51:03.192Z,100.00
2023-01-30T10:55:12.139Z,99.98
2023-01-30T10:59:46.244Z,99.74
2023-01-30T11:04:37.402Z,99.72
2023-01-30T11:09:05.149Z,98.97
2023-01-30T11:13:18.070Z,98.85
2023-01-30T11:18:41.400Z,98.32
2023-01-30T11:23:38.315Z,97.34
2023-01-30T13:58:35.389Z,94.53
2023-01-30T14:03:03.577Z,91.62
2023-01-30T14:07:12.786Z,90.33
2023-01-30T14:11:36.218Z,89.82
2023-01-30T14:16:05.674Z,89.02
2023-01-30T14:20:21.049Z,88.54
2023-01-30T14:25:14.306Z,88.00
2023-01-30T14:29:42.080Z,87.93
2023-01-30T14:33:50.555Z,88.59
2023-01-30T14:43:53.999Z,88.48
2023-01-30T14:48:22.435Z,88.98
2023-01-30T14:52:41.694Z,87.95
2023-01-30T14:57:18.376Z,87.21
2023-01-30T15:01:21.693Z,87.26
2023-01-30T15:05:38.822Z,87.31
2023-01-30T15:09:53.579Z,86.97
2023-01-30T15:14:23.090Z,87.54
2023-01-30T15:18:47.972Z,87.10
2023-01-30T15:23:26.779Z,87.46
2023-01-30T15:27:58.966Z,87.83
2023-01-30T15:32:14.956Z,87.94
2023-01-30T15:36:19.119Z,88.48
2023-01-30T15:40:24.388Z,88.28
2023-01-30T15:44:42.683Z,87.94
2023-01-30T15:48:55.033Z,87.67
2023-01-30T15:52:59.083Z,87.11
2023-01-30T15:57:02.300Z,87.14
2023-01-30T16:01:06.956Z,87.02
2023-01-30T16:05:25.226Z,86.57
2023-01-30T16:09:28.618Z,86.41
2023-01-30T16:13:33.474Z,87.02
2023-01-30T16:17:36.639Z,86.69
2023-01-30T16:21:47.689Z,86.61
2023-01-30T16:25:53.188Z,86.69
2023-01-30T16:30:30.808Z,86.22
2023-01-30T16:34:38.774Z,85.84
2023-01-30T16:38:57.552Z,86.40
2023-01-30T16:43:29.432Z,86.58
2023-01-30T16:47:34.687Z,86.63
2023-01-30T16:51:38.391Z,86.29
2023-01-30T16:56:49.394Z,86.09
2023-01-30T17:00:52.720Z,86.15
2023-01-30T17:05:21.700Z,87.80
2023-01-30T17:09:46.473Z,88.85
2023-01-30T17:14:14.967Z,91.06
2023-01-30T17:18:18.467Z,93.49
2023-01-30T17:22:24.631Z,95.82
2023-01-30T17:26:28.704Z,98.30
2023-01-30T17:30:31.888Z,99.74
2023-01-30T17:34:35.066Z,100.00
2023-01-30T17:38:38.238Z,100.00
2023-01-30T17:42:41.685Z,100.00
2023-01-30T17:46:51.089Z,100.00
2023-01-30T17:50:54.210Z,100.00
2023-01-30T17:55:49.521Z,100.00
2023-01-30T17:59:52.685Z,100.00
2023-01-30T18:03:55.683Z,100.00
2023-01-30T18:07:58.810Z,100.00
2023-01-30T18:12:04.544Z,100.00
2023-01-30T18:16:15.070Z,100.00
2023-01-30T18:20:20.692Z,100.00
2023-01-30T18:24:24.405Z,100.00
2023-01-30T18:34:21.942Z,100.00
2023-01-30T18:38:28.129Z,100.00
2023-01-30T18:42:31.220Z,100.00
2023-01-30T18:46:34.722Z,100.00
2023-01-30T18:50:37.850Z,100.00
2023-01-30T18:54:40.885Z,100.00
2023-01-30T18:58:49.702Z,100.00
2023-01-30T19:02:53.740Z,100.00
2023-01-30T19:07:11.208Z,100.00
2023-01-30T19:11:36.075Z,100.00
2023-01-30T19:15:39.199Z,100.00
2023-01-30T19:19:50.354Z,100.00
2023-01-30T19:23:54.555Z,100.00
2023-01-30T19:28:03.171Z,100.00
2023-01-30T19:32:06.571Z,100.00
2023-01-30T19:36:18.675Z,100.00
2023-01-30T19:40:22.055Z,100.00
2023-01-30T19:44:25.772Z,100.00
2023-01-30T19:48:28.791Z,100.00
2023-01-30T19:52:32.424Z,100.00
2023-01-30T19:56:51.994Z,100.00
2023-01-30T20:00:56.027Z,100.00
2023-01-30T20:05:28.418Z,100.00
2023-01-30T20:09:31.472Z,100.00
2023-01-30T20:13:36.965Z,100.00
2023-01-30T20:17:40.033Z,100.00
2023-01-30T20:21:44.343Z,100.00
2023-01-30T20:25:48.644Z,100.00
2023-01-30T20:29:55.951Z,100.00
2023-01-30T20:34:04.646Z,100.00
2023-01-30T20:38:07.915Z,100.00
2023-01-30T20:42:18.815Z,100.00
2023-01-30T20:46:24.560Z,100.00
2023-01-30T20:50:27.709Z,100.00
2023-01-30T20:54:30.767Z,100.00
2023-01-30T20:58:34.076Z,100.00
2023-01-30T21:02:37.139Z,100.00
2023-01-30T21:06:45.858Z,100.00
2023-01-30T21:10:49.881Z,100.00
2023-01-30T21:15:02.738Z,100.00
2023-01-30T21:19:08.466Z,100.00
2023-01-30T21:23:28.897Z,100.00
2023-01-30T21:27:31.982Z,100.00
2023-01-30T21:32:31.483Z,100.00
2023-01-30T21:36:34.495Z,100.00
2023-01-30T21:41:24.621Z,100.00
2023-01-30T21:45:27.725Z,100.00
2023-01-30T21:50:34.081Z,100.00
2023-01-30T21:54:37.759Z,100.00
2023-01-30T21:58:40.816Z,100.00
2023-01-30T22:02:43.866Z,100.00
2023-01-30T22:07:10.182Z,100.00
2023-01-30T22:11:20.609Z,100.00
2023-01-30T22:15:23.689Z,100.00
2023-01-30T22:20:19.848Z,100.00
2023-01-30T22:24:22.999Z,100.00
2023-01-30T22:28:58.185Z,100.00
2023-01-30T22:33:01.385Z,100.00
2023-01-30T22:37:04.420Z,100.00
2023-01-30T22:41:36.352Z,100.00
2023-01-30T22:45:39.461Z,100.00
2023-01-30T22:49:42.759Z,100.00
2023-01-30T22:53:51.368Z,99.69
2023-01-30T22:57:54.397Z,99.15
2023-01-30T23:01:57.536Z,98.59
2023-01-30T23:12:09.125Z,97.19
2023-01-30T23:21:57.151Z,96.20
2023-01-30T23:26:02.125Z,95.86
2023-01-30T23:35:47.632Z,96.11
2023-01-30T23:39:50.712Z,95.72
2023-01-30T23:43:54.545Z,97.69
2023-01-30T23:53:45.050Z,98.79
2023-01-30T23:58:49.243Z,98.32
